GB-0225 weather

Public forecast

Using degrees Celsius for public forecast. Weather courtesy of forecast.io.

Closest aviation weather report (METAR) to Stoodleigh Barton Private Airstrip

Closest report is Exeter International Airport, 14.1 nm (26.1 km) SSE. Retrieved 2020/08/12 16:20 UTC (53 minutes ago):

EGTE 121620Z 11002KT 9999 FEW050TCU 30/17 Q1011

Closest aviation forecast (TAF) to Stoodleigh Barton Private Airstrip

Forecast is more than 12 hours old.

Closest forecast is Exeter International Airport, 14.1 nm (26.1 km) SSE. Retrieved 2012/04/19 12:15 UTC (8 years ago):

TAF TAF EGTE 191401Z 1912/1924 31016KT 9999 SCT030 SCT035 PROB40 TEMPO 1915/1918 7000 SHRA BKN014